sensor_id;sensor_type;location;lat;lon;timestamp;temperature;humidity
46508;DHT22;32223;53.654;10.014;2024-02-23T00:01:56;9.80;99.90
46508;DHT22;32223;53.654;10.014;2024-02-23T00:04:22;9.70;99.90
46508;DHT22;32223;53.654;10.014;2024-02-23T00:06:47;9.60;99.90
46508;DHT22;32223;53.654;10.014;2024-02-23T00:09:13;9.40;99.90
46508;DHT22;32223;53.654;10.014;2024-02-23T00:11:40;9.40;99.90
46508;DHT22;32223;53.654;10.014;2024-02-23T00:14:06;9.20;99.90
46508;DHT22;32223;53.654;10.014;2024-02-23T00:16:38;9.20;99.90
46508;DHT22;32223;53.654;10.014;2024-02-23T00:19:05;9.20;99.90
46508;DHT22;32223;53.654;10.014;2024-02-23T00:21:32;9.10;99.90
46508;DHT22;32223;53.654;10.014;2024-02-23T00:23:57;9.10;99.90
46508;DHT22;32223;53.654;10.014;2024-02-23T00:26:23;9.10;99.90
46508;DHT22;32223;53.654;10.014;2024-02-23T00:28:48;9.10;99.90
46508;DHT22;32223;53.654;10.014;2024-02-23T00:31:14;9.10;99.90
46508;DHT22;32223;53.654;10.014;2024-02-23T00:33:39;9.10;99.90
46508;DHT22;32223;53.654;10.014;2024-02-23T00:36:07;9.10;99.90
46508;DHT22;32223;53.654;10.014;2024-02-23T00:38:33;9.10;99.90
46508;DHT22;32223;53.654;10.014;2024-02-23T00:40:58;9.00;99.90
46508;DHT22;32223;53.654;10.014;2024-02-23T00:43:24;9.10;99.90
46508;DHT22;32223;53.654;10.014;2024-02-23T00:45:49;9.00;99.90
46508;DHT22;32223;53.654;10.014;2024-02-23T00:48:15;9.00;99.90
46508;DHT22;32223;53.654;10.014;2024-02-23T00:50:41;8.80;99.90
46508;DHT22;32223;53.654;10.014;2024-02-23T00:53:06;8.50;99.90
46508;DHT22;32223;53.654;10.014;2024-02-23T00:55:32;8.00;99.90
46508;DHT22;32223;53.654;10.014;2024-02-23T00:57:57;7.60;99.90
46508;DHT22;32223;53.654;10.014;2024-02-23T01:00:24;7.30;99.90
46508;DHT22;32223;53.654;10.014;2024-02-23T01:02:50;7.30;99.90
46508;DHT22;32223;53.654;10.014;2024-02-23T01:05:16;7.10;99.90
46508;DHT22;32223;53.654;10.014;2024-02-23T01:07:42;7.00;99.90
46508;DHT22;32223;53.654;10.014;2024-02-23T01:10:07;7.00;99.90
46508;DHT22;32223;53.654;10.014;2024-02-23T01:12:33;7.00;99.90
46508;DHT22;32223;53.654;10.014;2024-02-23T01:14:59;7.00;99.90
46508;DHT22;32223;53.654;10.014;2024-02-23T01:17:24;7.00;99.90
46508;DHT22;32223;53.654;10.014;2024-02-23T01:19:50;7.00;99.90
46508;DHT22;32223;53.654;10.014;2024-02-23T01:22:17;6.90;99.90
46508;DHT22;32223;53.654;10.014;2024-02-23T01:24:42;6.90;99.90
46508;DHT22;32223;53.654;10.014;2024-02-23T01:27:08;6.90;99.90
46508;DHT22;32223;53.654;10.014;2024-02-23T01:29:34;6.80;99.90
46508;DHT22;32223;53.654;10.014;2024-02-23T01:31:59;6.70;99.90
46508;DHT22;32223;53.654;10.014;2024-02-23T01:34:25;6.70;99.90
46508;DHT22;32223;53.654;10.014;2024-02-23T01:36:51;6.70;99.90
46508;DHT22;32223;53.654;10.014;2024-02-23T01:39:16;6.70;99.90
46508;DHT22;32223;53.654;10.014;2024-02-23T01:41:42;6.70;99.90
46508;DHT22;32223;53.654;10.014;2024-02-23T01:44:10;6.70;99.90
46508;DHT22;32223;53.654;10.014;2024-02-23T01:46:36;6.80;99.90
46508;DHT22;32223;53.654;10.014;2024-02-23T01:49:02;6.80;99.90
46508;DHT22;32223;53.654;10.014;2024-02-23T01:51:29;6.80;99.90
46508;DHT22;32223;53.654;10.014;2024-02-23T01:53:55;6.80;99.90
46508;DHT22;32223;53.654;10.014;2024-02-23T01:56:21;6.80;99.90
46508;DHT22;32223;53.654;10.014;2024-02-23T01:58:47;6.80;99.90
46508;DHT22;32223;53.654;10.014;2024-02-23T02:01:12;6.80;99.90
46508;DHT22;32223;53.654;10.014;2024-02-23T02:03:38;6.80;99.90
46508;DHT22;32223;53.654;10.014;2024-02-23T02:06:09;6.80;99.90
46508;DHT22;32223;53.654;10.014;2024-02-23T02:08:35;6.80;99.90
46508;DHT22;32223;53.654;10.014;2024-02-23T02:11:01;6.80;99.90
46508;DHT22;32223;53.654;10.014;2024-02-23T02:13:29;6.80;99.90
46508;DHT22;32223;53.654;10.014;2024-02-23T02:15:57;6.70;99.90
46508;DHT22;32223;53.654;10.014;2024-02-23T02:18:23;6.70;99.90
46508;DHT22;32223;53.654;10.014;2024-02-23T02:20:55;6.70;99.90
46508;DHT22;32223;53.654;10.014;2024-02-23T02:23:22;6.70;99.90
46508;DHT22;32223;53.654;10.014;2024-02-23T02:25:57;6.70;99.90
46508;DHT22;32223;53.654;10.014;2024-02-23T02:28:24;6.60;99.90
46508;DHT22;32223;53.654;10.014;2024-02-23T02:30:51;6.60;99.90
46508;DHT22;32223;53.654;10.014;2024-02-23T02:33:17;6.60;99.90
46508;DHT22;32223;53.654;10.014;2024-02-23T02:35:43;6.50;99.90
46508;DHT22;32223;53.654;10.014;2024-02-23T02:38:09;6.40;99.90
46508;DHT22;32223;53.654;10.014;2024-02-23T02:40:35;6.30;99.90
46508;DHT22;32223;53.654;10.014;2024-02-23T02:43:01;6.30;99.90
46508;DHT22;32223;53.654;10.014;2024-02-23T02:45:26;6.20;99.90
46508;DHT22;32223;53.654;10.014;2024-02-23T02:47:52;6.10;99.90
46508;DHT22;32223;53.654;10.014;2024-02-23T02:50:17;6.20;99.90
46508;DHT22;32223;53.654;10.014;2024-02-23T02:52:43;6.10;99.90
46508;DHT22;32223;53.654;10.014;2024-02-23T02:55:08;6.00;99.90
46508;DHT22;32223;53.654;10.014;2024-02-23T02:57:34;5.90;99.90
46508;DHT22;32223;53.654;10.014;2024-02-23T03:00:02;5.80;99.90
46508;DHT22;32223;53.654;10.014;2024-02-23T03:02:30;5.60;99.90
46508;DHT22;32223;53.654;10.014;2024-02-23T03:04:56;5.60;99.90
46508;DHT22;32223;53.654;10.014;2024-02-23T03:07:21;5.60;99.90
46508;DHT22;32223;53.654;10.014;2024-02-23T03:09:47;5.60;99.90
46508;DHT22;32223;53.654;10.014;2024-02-23T03:12:14;5.60;99.90
46508;DHT22;32223;53.654;10.014;2024-02-23T03:14:40;5.60;99.90
46508;DHT22;32223;53.654;10.014;2024-02-23T03:17:07;5.60;99.90
46508;DHT22;32223;53.654;10.014;2024-02-23T03:19:33;5.60;99.90
46508;DHT22;32223;53.654;10.014;2024-02-23T03:21:59;5.60;99.90
46508;DHT22;32223;53.654;10.014;2024-02-23T03:24:24;5.60;99.90
46508;DHT22;32223;53.654;10.014;2024-02-23T03:26:50;5.50;99.90
46508;DHT22;32223;53.654;10.014;2024-02-23T03:29:15;5.60;99.90
46508;DHT22;32223;53.654;10.014;2024-02-23T03:31:41;5.60;99.90
46508;DHT22;32223;53.654;10.014;2024-02-23T03:34:07;5.60;99.90
46508;DHT22;32223;53.654;10.014;2024-02-23T03:36:33;5.50;99.90
46508;DHT22;32223;53.654;10.014;2024-02-23T03:38:59;5.50;99.90
46508;DHT22;32223;53.654;10.014;2024-02-23T03:41:24;5.50;99.90
46508;DHT22;32223;53.654;10.014;2024-02-23T03:43:50;5.50;99.90
46508;DHT22;32223;53.654;10.014;2024-02-23T03:46:15;5.50;99.90
46508;DHT22;32223;53.654;10.014;2024-02-23T03:48:44;5.50;99.90
46508;DHT22;32223;53.654;10.014;2024-02-23T03:51:10;5.40;99.90
46508;DHT22;32223;53.654;10.014;2024-02-23T03:53:35;5.40;99.90
46508;DHT22;32223;53.654;10.014;2024-02-23T03:56:03;5.30;99.90
46508;DHT22;32223;53.654;10.014;2024-02-23T03:58:29;5.20;99.90
46508;DHT22;32223;53.654;10.014;2024-02-23T04:00:54;5.20;99.90
46508;DHT22;32223;53.654;10.014;2024-02-23T04:03:20;5.20;99.90
46508;DHT22;32223;53.654;10.014;2024-02-23T04:05:46;5.10;99.90
46508;DHT22;32223;53.654;10.014;2024-02-23T04:08:11;5.00;99.90
46508;DHT22;32223;53.654;10.014;2024-02-23T04:10:37;5.00;99.90
46508;DHT22;32223;53.654;10.014;2024-02-23T04:13:03;5.00;99.90
46508;DHT22;32223;53.654;10.014;2024-02-23T04:15:28;5.00;99.90
46508;DHT22;32223;53.654;10.014;2024-02-23T04:17:54;4.90;99.90
46508;DHT22;32223;53.654;10.014;2024-02-23T04:20:19;4.90;99.90
46508;DHT22;32223;53.654;10.014;2024-02-23T04:22:45;4.90;99.90
46508;DHT22;32223;53.654;10.014;2024-02-23T04:25:11;4.90;99.90
46508;DHT22;32223;53.654;10.014;2024-02-23T04:27:37;5.00;99.90
46508;DHT22;32223;53.654;10.014;2024-02-23T04:30:03;5.10;99.90
46508;DHT22;32223;53.654;10.014;2024-02-23T04:32:29;5.10;99.90
46508;DHT22;32223;53.654;10.014;2024-02-23T04:34:55;5.10;99.90
46508;DHT22;32223;53.654;10.014;2024-02-23T04:37:21;5.10;99.90
46508;DHT22;32223;53.654;10.014;2024-02-23T04:39:47;5.20;99.90
46508;DHT22;32223;53.654;10.014;2024-02-23T04:42:14;5.10;99.90
46508;DHT22;32223;53.654;10.014;2024-02-23T04:44:41;5.10;99.90
46508;DHT22;32223;53.654;10.014;2024-02-23T04:47:07;5.20;99.90
46508;DHT22;32223;53.654;10.014;2024-02-23T04:49:33;5.10;99.90
46508;DHT22;32223;53.654;10.014;2024-02-23T04:51:58;5.10;99.90
46508;DHT22;32223;53.654;10.014;2024-02-23T04:54:24;5.20;99.90
46508;DHT22;32223;53.654;10.014;2024-02-23T04:56:49;5.10;99.90
46508;DHT22;32223;53.654;10.014;2024-02-23T04:59:15;5.10;99.90
46508;DHT22;32223;53.654;10.014;2024-02-23T05:01:41;5.10;99.90
46508;DHT22;32223;53.654;10.014;2024-02-23T05:04:08;5.10;99.90
46508;DHT22;32223;53.654;10.014;2024-02-23T05:06:33;5.10;99.90
46508;DHT22;32223;53.654;10.014;2024-02-23T05:08:59;5.20;99.90
46508;DHT22;32223;53.654;10.014;2024-02-23T05:11:24;5.20;99.90
46508;DHT22;32223;53.654;10.014;2024-02-23T05:13:50;5.20;99.90
46508;DHT22;32223;53.654;10.014;2024-02-23T05:16:16;5.30;99.90
46508;DHT22;32223;53.654;10.014;2024-02-23T05:18:41;5.20;99.90
46508;DHT22;32223;53.654;10.014;2024-02-23T05:21:07;5.30;99.90
46508;DHT22;32223;53.654;10.014;2024-02-23T05:23:33;5.30;99.90
46508;DHT22;32223;53.654;10.014;2024-02-23T05:25:59;5.20;99.90
46508;DHT22;32223;53.654;10.014;2024-02-23T05:28:24;5.20;99.90
46508;DHT22;32223;53.654;10.014;2024-02-23T05:30:51;5.20;99.90
46508;DHT22;32223;53.654;10.014;2024-02-23T05:33:17;5.20;99.90
46508;DHT22;32223;53.654;10.014;2024-02-23T05:35:46;5.20;99.90
46508;DHT22;32223;53.654;10.014;2024-02-23T05:38:14;5.10;99.90
46508;DHT22;32223;53.654;10.014;2024-02-23T05:40:39;5.10;99.90
46508;DHT22;32223;53.654;10.014;2024-02-23T05:43:05;5.00;99.90
46508;DHT22;32223;53.654;10.014;2024-02-23T05:45:31;5.00;99.90
46508;DHT22;32223;53.654;10.014;2024-02-23T05:47:56;5.00;99.90
46508;DHT22;32223;53.654;10.014;2024-02-23T05:50:22;5.10;99.90
46508;DHT22;32223;53.654;10.014;2024-02-23T05:52:47;5.00;99.90
46508;DHT22;32223;53.654;10.014;2024-02-23T05:55:13;5.10;99.90
46508;DHT22;32223;53.654;10.014;2024-02-23T05:57:39;5.00;99.90
46508;DHT22;32223;53.654;10.014;2024-02-23T06:00:05;5.10;99.90
46508;DHT22;32223;53.654;10.014;2024-02-23T06:02:32;5.00;99.90
46508;DHT22;32223;53.654;10.014;2024-02-23T06:04:58;5.10;99.90
46508;DHT22;32223;53.654;10.014;2024-02-23T06:07:24;5.10;99.90
46508;DHT22;32223;53.654;10.014;2024-02-23T06:09:57;5.10;99.90
46508;DHT22;32223;53.654;10.014;2024-02-23T06:12:24;5.10;99.90
46508;DHT22;32223;53.654;10.014;2024-02-23T06:14:50;5.20;99.90
46508;DHT22;32223;53.654;10.014;2024-02-23T06:17:16;5.20;99.90
46508;DHT22;32223;53.654;10.014;2024-02-23T06:19:42;5.10;99.90
46508;DHT22;32223;53.654;10.014;2024-02-23T06:22:07;5.00;99.90
46508;DHT22;32223;53.654;10.014;2024-02-23T06:24:35;5.00;99.90
46508;DHT22;32223;53.654;10.014;2024-02-23T06:27:01;5.00;99.90
46508;DHT22;32223;53.654;10.014;2024-02-23T06:29:29;5.00;99.90
46508;DHT22;32223;53.654;10.014;2024-02-23T06:31:55;5.00;99.90
46508;DHT22;32223;53.654;10.014;2024-02-23T06:34:20;5.00;99.90
46508;DHT22;32223;53.654;10.014;2024-02-23T06:36:46;5.00;99.90
46508;DHT22;32223;53.654;10.014;2024-02-23T06:39:12;5.00;99.90
46508;DHT22;32223;53.654;10.014;2024-02-23T06:41:38;5.00;99.90
46508;DHT22;32223;53.654;10.014;2024-02-23T06:44:04;5.00;99.90
46508;DHT22;32223;53.654;10.014;2024-02-23T06:46:30;5.00;99.90
46508;DHT22;32223;53.654;10.014;2024-02-23T06:48:56;5.10;99.90
46508;DHT22;32223;53.654;10.014;2024-02-23T06:51:21;5.10;99.90
46508;DHT22;32223;53.654;10.014;2024-02-23T06:53:47;5.00;99.90
46508;DHT22;32223;53.654;10.014;2024-02-23T06:56:13;5.10;99.90
46508;DHT22;32223;53.654;10.014;2024-02-23T06:58:38;5.10;99.90
46508;DHT22;32223;53.654;10.014;2024-02-23T07:01:04;5.10;99.90
46508;DHT22;32223;53.654;10.014;2024-02-23T07:03:32;5.10;99.90
46508;DHT22;32223;53.654;10.014;2024-02-23T07:05:58;5.10;99.90
46508;DHT22;32223;53.654;10.014;2024-02-23T07:08:23;5.10;99.90
46508;DHT22;32223;53.654;10.014;2024-02-23T07:10:49;5.10;99.90
46508;DHT22;32223;53.654;10.014;2024-02-23T07:13:15;5.10;99.90
46508;DHT22;32223;53.654;10.014;2024-02-23T07:15:40;5.20;99.90
46508;DHT22;32223;53.654;10.014;2024-02-23T07:18:06;5.20;99.90
46508;DHT22;32223;53.654;10.014;2024-02-23T07:20:36;5.20;99.90
46508;DHT22;32223;53.654;10.014;2024-02-23T07:23:01;5.20;99.90
46508;DHT22;32223;53.654;10.014;2024-02-23T07:25:27;5.20;99.90
46508;DHT22;32223;53.654;10.014;2024-02-23T07:27:52;5.20;99.90
46508;DHT22;32223;53.654;10.014;2024-02-23T07:30:18;5.10;99.90
46508;DHT22;32223;53.654;10.014;2024-02-23T07:32:44;5.20;99.90
46508;DHT22;32223;53.654;10.014;2024-02-23T07:35:11;5.20;99.90
46508;DHT22;32223;53.654;10.014;2024-02-23T07:37:37;5.10;99.90
46508;DHT22;32223;53.654;10.014;2024-02-23T07:40:03;5.10;99.90
46508;DHT22;32223;53.654;10.014;2024-02-23T07:42:29;5.10;99.90
46508;DHT22;32223;53.654;10.014;2024-02-23T07:44:55;5.10;99.90
46508;DHT22;32223;53.654;10.014;2024-02-23T07:47:21;5.10;99.90
46508;DHT22;32223;53.654;10.014;2024-02-23T07:49:47;5.00;99.90
46508;DHT22;32223;53.654;10.014;2024-02-23T07:52:12;5.00;99.90
46508;DHT22;32223;53.654;10.014;2024-02-23T07:54:38;5.00;99.90
46508;DHT22;32223;53.654;10.014;2024-02-23T07:57:04;5.00;99.90
46508;DHT22;32223;53.654;10.014;2024-02-23T07:59:32;5.10;99.90
46508;DHT22;32223;53.654;10.014;2024-02-23T08:01:58;5.10;99.90
46508;DHT22;32223;53.654;10.014;2024-02-23T08:04:24;5.20;99.90
46508;DHT22;32223;53.654;10.014;2024-02-23T08:06:50;5.20;99.90
46508;DHT22;32223;53.654;10.014;2024-02-23T08:09:16;5.20;99.90
46508;DHT22;32223;53.654;10.014;2024-02-23T08:11:43;5.20;99.90
46508;DHT22;32223;53.654;10.014;2024-02-23T08:14:08;5.30;99.90
46508;DHT22;32223;53.654;10.014;2024-02-23T08:16:34;5.40;99.90
46508;DHT22;32223;53.654;10.014;2024-02-23T08:19:00;5.40;99.90
46508;DHT22;32223;53.654;10.014;2024-02-23T08:21:25;5.50;99.90
46508;DHT22;32223;53.654;10.014;2024-02-23T08:23:54;5.60;99.90
46508;DHT22;32223;53.654;10.014;2024-02-23T08:26:19;5.70;99.90
46508;DHT22;32223;53.654;10.014;2024-02-23T08:28:45;5.70;99.90
46508;DHT22;32223;53.654;10.014;2024-02-23T08:31:10;5.80;99.90
46508;DHT22;32223;53.654;10.014;2024-02-23T08:33:36;5.90;99.90
46508;DHT22;32223;53.654;10.014;2024-02-23T08:36:02;5.90;99.90
46508;DHT22;32223;53.654;10.014;2024-02-23T08:38:31;6.00;99.90
46508;DHT22;32223;53.654;10.014;2024-02-23T08:40:57;6.10;99.90
46508;DHT22;32223;53.654;10.014;2024-02-23T08:43:24;6.20;99.90
46508;DHT22;32223;53.654;10.014;2024-02-23T08:45:49;6.30;99.90
46508;DHT22;32223;53.654;10.014;2024-02-23T08:48:15;6.40;99.90
46508;DHT22;32223;53.654;10.014;2024-02-23T08:50:42;6.40;99.90
46508;DHT22;32223;53.654;10.014;2024-02-23T08:53:08;6.40;99.90
46508;DHT22;32223;53.654;10.014;2024-02-23T08:55:34;6.50;99.90
46508;DHT22;32223;53.654;10.014;2024-02-23T08:57:59;6.50;99.90
46508;DHT22;32223;53.654;10.014;2024-02-23T09:00:25;6.50;99.90
46508;DHT22;32223;53.654;10.014;2024-02-23T09:02:51;6.60;99.90
46508;DHT22;32223;53.654;10.014;2024-02-23T09:05:16;6.60;99.90
46508;DHT22;32223;53.654;10.014;2024-02-23T09:07:42;6.70;99.90
46508;DHT22;32223;53.654;10.014;2024-02-23T09:10:08;6.70;99.90
46508;DHT22;32223;53.654;10.014;2024-02-23T09:12:34;6.70;99.90
46508;DHT22;32223;53.654;10.014;2024-02-23T09:14:59;6.80;99.90
46508;DHT22;32223;53.654;10.014;2024-02-23T09:17:25;6.80;99.90
46508;DHT22;32223;53.654;10.014;2024-02-23T09:19:51;6.90;99.90
46508;DHT22;32223;53.654;10.014;2024-02-23T09:22:17;6.80;99.90
46508;DHT22;32223;53.654;10.014;2024-02-23T09:24:42;6.90;99.90
46508;DHT22;32223;53.654;10.014;2024-02-23T09:27:08;7.00;99.90
46508;DHT22;32223;53.654;10.014;2024-02-23T09:29:34;7.00;99.90
46508;DHT22;32223;53.654;10.014;2024-02-23T09:32:00;7.00;99.90
46508;DHT22;32223;53.654;10.014;2024-02-23T09:34:26;7.00;99.90
46508;DHT22;32223;53.654;10.014;2024-02-23T09:36:52;7.10;99.90
46508;DHT22;32223;53.654;10.014;2024-02-23T09:39:17;7.00;99.90
46508;DHT22;32223;53.654;10.014;2024-02-23T09:41:43;7.00;99.90
46508;DHT22;32223;53.654;10.014;2024-02-23T09:44:09;7.00;99.90
46508;DHT22;32223;53.654;10.014;2024-02-23T09:46:40;7.10;99.90
46508;DHT22;32223;53.654;10.014;2024-02-23T09:49:05;7.00;99.90
46508;DHT22;32223;53.654;10.014;2024-02-23T09:51:33;7.00;99.90
46508;DHT22;32223;53.654;10.014;2024-02-23T09:54:01;7.10;99.90
46508;DHT22;32223;53.654;10.014;2024-02-23T09:56:28;7.10;99.90
46508;DHT22;32223;53.654;10.014;2024-02-23T09:59:02;7.10;99.90
46508;DHT22;32223;53.654;10.014;2024-02-23T10:01:31;7.20;99.90
46508;DHT22;32223;53.654;10.014;2024-02-23T10:04:00;7.30;99.90
46508;DHT22;32223;53.654;10.014;2024-02-23T10:06:26;7.40;99.90
46508;DHT22;32223;53.654;10.014;2024-02-23T10:08:52;7.40;99.90
46508;DHT22;32223;53.654;10.014;2024-02-23T10:11:20;7.50;99.90
46508;DHT22;32223;53.654;10.014;2024-02-23T10:13:48;7.50;99.90
46508;DHT22;32223;53.654;10.014;2024-02-23T10:16:18;7.60;99.90
46508;DHT22;32223;53.654;10.014;2024-02-23T10:18:45;7.50;99.90
46508;DHT22;32223;53.654;10.014;2024-02-23T10:21:12;7.60;99.90
46508;DHT22;32223;53.654;10.014;2024-02-23T10:23:38;7.70;99.90
46508;DHT22;32223;53.654;10.014;2024-02-23T10:26:05;7.80;99.90
46508;DHT22;32223;53.654;10.014;2024-02-23T10:28:31;7.90;99.90
46508;DHT22;32223;53.654;10.014;2024-02-23T10:30:57;7.90;99.90
46508;DHT22;32223;53.654;10.014;2024-02-23T10:33:23;7.90;99.90
46508;DHT22;32223;53.654;10.014;2024-02-23T10:35:56;8.10;99.90
46508;DHT22;32223;53.654;10.014;2024-02-23T10:38:23;8.30;99.90
46508;DHT22;32223;53.654;10.014;2024-02-23T10:40:50;8.50;99.90
46508;DHT22;32223;53.654;10.014;2024-02-23T10:43:19;8.60;99.90
46508;DHT22;32223;53.654;10.014;2024-02-23T10:45:46;8.50;99.90
46508;DHT22;32223;53.654;10.014;2024-02-23T10:48:12;8.50;99.90
46508;DHT22;32223;53.654;10.014;2024-02-23T10:50:41;8.60;99.90
46508;DHT22;32223;53.654;10.014;2024-02-23T10:53:10;8.60;99.90
46508;DHT22;32223;53.654;10.014;2024-02-23T10:55:37;8.50;99.90
46508;DHT22;32223;53.654;10.014;2024-02-23T10:58:06;8.50;99.90
46508;DHT22;32223;53.654;10.014;2024-02-23T11:00:34;8.70;99.90
46508;DHT22;32223;53.654;10.014;2024-02-23T11:03:00;8.70;99.90
46508;DHT22;32223;53.654;10.014;2024-02-23T11:05:27;8.60;99.90
46508;DHT22;32223;53.654;10.014;2024-02-23T11:07:56;8.30;99.90
46508;DHT22;32223;53.654;10.014;2024-02-23T11:10:22;8.30;99.90
46508;DHT22;32223;53.654;10.014;2024-02-23T11:13:00;8.40;99.90
46508;DHT22;32223;53.654;10.014;2024-02-23T11:15:26;8.40;99.90
46508;DHT22;32223;53.654;10.014;2024-02-23T11:17:52;8.30;99.90
46508;DHT22;32223;53.654;10.014;2024-02-23T11:20:18;8.40;99.90
46508;DHT22;32223;53.654;10.014;2024-02-23T11:22:43;8.50;99.90
46508;DHT22;32223;53.654;10.014;2024-02-23T11:25:09;8.70;99.90
46508;DHT22;32223;53.654;10.014;2024-02-23T11:27:36;8.90;99.90
46508;DHT22;32223;53.654;10.014;2024-02-23T11:30:06;8.80;99.90
46508;DHT22;32223;53.654;10.014;2024-02-23T11:32:44;8.70;99.90
46508;DHT22;32223;53.654;10.014;2024-02-23T11:35:15;8.60;99.90
46508;DHT22;32223;53.654;10.014;2024-02-23T11:37:57;8.30;99.90
46508;DHT22;32223;53.654;10.014;2024-02-23T11:40:29;8.30;99.90
46508;DHT22;32223;53.654;10.014;2024-02-23T11:42:56;8.20;99.90
46508;DHT22;32223;53.654;10.014;2024-02-23T11:45:21;8.20;99.90
46508;DHT22;32223;53.654;10.014;2024-02-23T11:47:47;8.10;99.90
46508;DHT22;32223;53.654;10.014;2024-02-23T11:50:13;8.20;99.90
46508;DHT22;32223;53.654;10.014;2024-02-23T11:52:45;8.30;99.90
46508;DHT22;32223;53.654;10.014;2024-02-23T11:55:10;8.40;99.90
46508;DHT22;32223;53.654;10.014;2024-02-23T11:57:38;8.40;99.90
46508;DHT22;32223;53.654;10.014;2024-02-23T12:00:05;8.40;99.90
46508;DHT22;32223;53.654;10.014;2024-02-23T12:02:33;8.40;99.90
46508;DHT22;32223;53.654;10.014;2024-02-23T12:04:58;8.70;99.90
46508;DHT22;32223;53.654;10.014;2024-02-23T12:07:24;8.90;99.90
46508;DHT22;32223;53.654;10.014;2024-02-23T12:09:52;9.20;99.90
46508;DHT22;32223;53.654;10.014;2024-02-23T12:12:17;9.10;99.90
46508;DHT22;32223;53.654;10.014;2024-02-23T12:14:44;9.10;99.90
46508;DHT22;32223;53.654;10.014;2024-02-23T12:17:09;9.10;99.90
46508;DHT22;32223;53.654;10.014;2024-02-23T12:19:41;9.30;99.90
46508;DHT22;32223;53.654;10.014;2024-02-23T12:22:07;9.20;99.90
46508;DHT22;32223;53.654;10.014;2024-02-23T12:24:35;9.10;99.90
46508;DHT22;32223;53.654;10.014;2024-02-23T12:27:00;9.10;99.90
46508;DHT22;32223;53.654;10.014;2024-02-23T12:29:26;9.00;99.90
46508;DHT22;32223;53.654;10.014;2024-02-23T12:32:02;8.80;99.90
46508;DHT22;32223;53.654;10.014;2024-02-23T12:34:28;8.70;99.90
46508;DHT22;32223;53.654;10.014;2024-02-23T12:36:55;8.60;99.90
46508;DHT22;32223;53.654;10.014;2024-02-23T12:39:21;8.60;99.90
46508;DHT22;32223;53.654;10.014;2024-02-23T12:41:46;8.50;99.90
46508;DHT22;32223;53.654;10.014;2024-02-23T12:44:12;8.50;99.90
46508;DHT22;32223;53.654;10.014;2024-02-23T12:46:37;8.40;99.90
46508;DHT22;32223;53.654;10.014;2024-02-23T12:49:03;8.40;99.90
46508;DHT22;32223;53.654;10.014;2024-02-23T12:51:29;8.60;99.90
46508;DHT22;32223;53.654;10.014;2024-02-23T12:53:54;8.50;99.90
46508;DHT22;32223;53.654;10.014;2024-02-23T12:56:20;8.70;99.90
46508;DHT22;32223;53.654;10.014;2024-02-23T12:58:46;8.80;99.90
46508;DHT22;32223;53.654;10.014;2024-02-23T13:01:12;8.90;99.90
46508;DHT22;32223;53.654;10.014;2024-02-23T13:03:38;9.10;99.90
46508;DHT22;32223;53.654;10.014;2024-02-23T13:06:09;9.10;99.90
46508;DHT22;32223;53.654;10.014;2024-02-23T13:08:34;9.00;99.90
46508;DHT22;32223;53.654;10.014;2024-02-23T13:11:00;9.00;99.90
46508;DHT22;32223;53.654;10.014;2024-02-23T13:13:26;9.10;99.90
46508;DHT22;32223;53.654;10.014;2024-02-23T13:15:53;9.00;99.90
46508;DHT22;32223;53.654;10.014;2024-02-23T13:18:19;9.00;99.90
46508;DHT22;32223;53.654;10.014;2024-02-23T13:20:48;8.90;99.90
46508;DHT22;32223;53.654;10.014;2024-02-23T13:23:14;8.80;99.90
46508;DHT22;32223;53.654;10.014;2024-02-23T13:26:00;8.80;99.90
46508;DHT22;32223;53.654;10.014;2024-02-23T13:28:28;8.70;99.90
46508;DHT22;32223;53.654;10.014;2024-02-23T13:30:55;8.70;99.90
46508;DHT22;32223;53.654;10.014;2024-02-23T13:33:21;8.60;99.90
46508;DHT22;32223;53.654;10.014;2024-02-23T13:35:50;8.50;99.90
46508;DHT22;32223;53.654;10.014;2024-02-23T13:38:16;8.50;99.90
46508;DHT22;32223;53.654;10.014;2024-02-23T13:40:42;8.40;99.90
46508;DHT22;32223;53.654;10.014;2024-02-23T13:43:08;8.40;99.90
46508;DHT22;32223;53.654;10.014;2024-02-23T13:45:51;8.30;99.90
46508;DHT22;32223;53.654;10.014;2024-02-23T13:48:23;8.30;99.90
46508;DHT22;32223;53.654;10.014;2024-02-23T13:50:51;8.30;99.90
46508;DHT22;32223;53.654;10.014;2024-02-23T13:53:17;8.30;99.90
46508;DHT22;32223;53.654;10.014;2024-02-23T13:55:42;8.30;99.90
46508;DHT22;32223;53.654;10.014;2024-02-23T13:58:09;8.30;99.90
46508;DHT22;32223;53.654;10.014;2024-02-23T14:00:35;8.30;99.90
46508;DHT22;32223;53.654;10.014;2024-02-23T14:03:03;8.30;99.90
46508;DHT22;32223;53.654;10.014;2024-02-23T14:05:35;8.30;99.90
46508;DHT22;32223;53.654;10.014;2024-02-23T14:08:01;8.40;99.90
46508;DHT22;32223;53.654;10.014;2024-02-23T14:10:26;8.30;99.90
46508;DHT22;32223;53.654;10.014;2024-02-23T14:12:55;8.30;99.90
46508;DHT22;32223;53.654;10.014;2024-02-23T14:15:21;8.40;99.90
46508;DHT22;32223;53.654;10.014;2024-02-23T14:17:47;8.40;99.90
46508;DHT22;32223;53.654;10.014;2024-02-23T14:20:20;8.50;99.90
46508;DHT22;32223;53.654;10.014;2024-02-23T14:22:49;9.00;99.90
46508;DHT22;32223;53.654;10.014;2024-02-23T14:25:18;9.70;99.90
46508;DHT22;32223;53.654;10.014;2024-02-23T14:27:44;11.10;99.90
46508;DHT22;32223;53.654;10.014;2024-02-23T14:30:10;12.20;99.90
46508;DHT22;32223;53.654;10.014;2024-02-23T14:32:42;13.90;99.90
46508;DHT22;32223;53.654;10.014;2024-02-23T14:35:08;15.20;99.90
46508;DHT22;32223;53.654;10.014;2024-02-23T14:37:34;15.30;98.70
46508;DHT22;32223;53.654;10.014;2024-02-23T14:40:00;14.70;98.80
46508;DHT22;32223;53.654;10.014;2024-02-23T14:42:26;13.70;98.90
46508;DHT22;32223;53.654;10.014;2024-02-23T14:44:52;13.00;99.90
46508;DHT22;32223;53.654;10.014;2024-02-23T14:47:17;12.50;99.90
46508;DHT22;32223;53.654;10.014;2024-02-23T14:49:52;11.90;99.90
46508;DHT22;32223;53.654;10.014;2024-02-23T14:52:26;11.20;99.90
46508;DHT22;32223;53.654;10.014;2024-02-23T14:54:55;10.60;99.90
46508;DHT22;32223;53.654;10.014;2024-02-23T14:57:30;10.00;99.90
46508;DHT22;32223;53.654;10.014;2024-02-23T14:59:59;9.70;99.90
46508;DHT22;32223;53.654;10.014;2024-02-23T15:02:24;9.60;99.90
46508;DHT22;32223;53.654;10.014;2024-02-23T15:04:57;9.50;99.90
46508;DHT22;32223;53.654;10.014;2024-02-23T15:07:22;9.40;99.90
46508;DHT22;32223;53.654;10.014;2024-02-23T15:09:55;9.40;99.90
46508;DHT22;32223;53.654;10.014;2024-02-23T15:12:38;9.20;99.90
46508;DHT22;32223;53.654;10.014;2024-02-23T15:15:06;9.20;99.90
46508;DHT22;32223;53.654;10.014;2024-02-23T15:17:32;9.10;99.90
46508;DHT22;32223;53.654;10.014;2024-02-23T15:19:58;9.20;99.90
46508;DHT22;32223;53.654;10.014;2024-02-23T15:22:23;9.10;99.90
46508;DHT22;32223;53.654;10.014;2024-02-23T15:24:53;9.00;99.90
46508;DHT22;32223;53.654;10.014;2024-02-23T15:27:19;9.00;99.90